KLSF

Lawson AAF (Fort Benning) Airport

Fort Benning(Columbus), Georgia, USA
METAR KLSF 202023Z AUTO 27004KT 10SM -DZ FEW043 25/25 A3004 RMK AO2 DZB15 SLP176
Observed Flight Rules
Aug-20 @ 20:23 UTC (8 minutes ago) Visual Flight Rules
Wind Visibility Clouds Conditions
270° at 4 knots 10 miles
  • Few at 4,300' AGL
  • Light Drizzle
Temperatures Readings
Current 25°C / 77°F
Dewpoint 25°C / 77°F
Humidity 100%
Altimeter 30.04" Hg
Pressure 1017.6 hPa
Elevation 71
METAR KLSF 202023Z AUTO 27004KT 10SM -DZ FEW043 25/25 A3004 RMK AO2 DZB15 SLP176
Observed Flight Rules
Aug-20 @ 20:23 UTC
(8 minutes ago)
VFR
Wind Visibility
270° at 4 knots 10 miles
Clouds
  • Few at 4,300' AGL
Conditions
  • Light Drizzle
Temperature Dewpoint
25°C / 77°F 25°C / 77°F
Humidity Altimeter Pressure
100% 30.04" Hg 1017.6 hPa